This is the latest recevied weather packets stored in our database for station/object KGRR-WX. If no packets are shown the sender has not sent any weather packets the latest 10 day(s).
| Time | Temp. | Humidity | Pressure | Rain* | Wind** | Luminosity | Snow |
|---|---|---|---|---|---|---|---|
| 1788176712 | 20° C | 89% | 986.9 hPa | 0 mm | - | - | - |
| 1788175809 | 19.44° C | 89% | 986.9 hPa | 0 mm | - | - | - |
| 1788174912 | 20° C | 89% | 986.9 hPa | 0 mm | - | - | - |
| 1788174010 | 20° C | 89% | 986.9 hPa | 0 mm | - | - | - |
| 1788173106 | 20° C | 84% | 988.1 hPa | 0 mm | - | - | - |
| 1788172210 | 20° C | 87% | 987 hPa | 0 mm | - | - | - |
| 1788171312 | 20° C | 87% | 987 hPa | 0 mm | - | - | - |
| 1788170411 | 20° C | 87% | 987 hPa | 0 mm | - | - | - |
| 1788169513 | 20° C | 86% | 987.9 hPa | 0 mm | - | - | - |
| 1788168606 | 20° C | 89% | 986.9 hPa | 0 mm | - | - | - |
| 1788167713 | 19.44° C | 89% | 986.9 hPa | 0 mm | - | - | - |
| 1788166806 | 19.44° C | 89% | 986.9 hPa | 0 mm | - | - | - |
| 1788165912 | 20° C | 88% | 987.5 hPa | 0 mm | - | - | - |
| 1788165010 | 20° C | 88% | 986.9 hPa | 0 mm | - | - | - |
| 1788164112 | 20° C | 88% | 986.9 hPa | 0 mm | - | - | - |
| 1788163210 | 20° C | 89% | 987.1 hPa | 0 mm | - | - | - |
| 1788162305 | 20° C | 88% | 986.7 hPa | 0 mm | - | - | - |
| 1788161410 | 20° C | 88% | 986.7 hPa | 0 mm | - | - | - |
| 1788160512 | 20° C | 88% | 986.7 hPa | 0 mm | - | - | - |
| 1788159610 | 20° C | 88% | 986.5 hPa | 0 mm | - | - | - |
| 1788158780 | 20° C | 86% | 986.8 hPa | 0 mm | - | - | - |
| 1788157810 | 20° C | 86% | 986.8 hPa | 0 mm | - | - | - |
| 1788156911 | 20° C | 86% | 986.8 hPa | 0 mm | - | - | - |
| 1788156006 | 20° C | 86% | 986.8 hPa | 0 mm | - | - | - |
| 1788155105 | 20° C | 84% | 987 hPa | 0 mm | - | - | - |
* Rain latest hour (hover to see other rain measurements)
** Current wind speed in m/s (hover to see current wind gust speed)